sensor_id;sensor_type;location;lat;lon;timestamp;P1;durP1;ratioP1;P2;durP2;ratioP2
68216;SDS011;55037;52.354;4.992;2023-03-01T00:01:03;27.65;;;14.63;;
68216;SDS011;55037;52.354;4.992;2023-03-01T00:03:32;23.23;;;13.67;;
68216;SDS011;55037;52.354;4.992;2023-03-01T00:06:00;30.65;;;14.57;;
68216;SDS011;55037;52.354;4.992;2023-03-01T00:08:28;25.52;;;14.40;;
68216;SDS011;55037;52.354;4.992;2023-03-01T00:11:00;28.00;;;13.80;;
68216;SDS011;55037;52.354;4.992;2023-03-01T00:13:27;28.63;;;15.02;;
68216;SDS011;55037;52.354;4.992;2023-03-01T00:15:55;27.77;;;14.77;;
68216;SDS011;55037;52.354;4.992;2023-03-01T00:18:22;28.13;;;13.88;;
68216;SDS011;55037;52.354;4.992;2023-03-01T00:20:50;26.20;;;12.82;;
68216;SDS011;55037;52.354;4.992;2023-03-01T00:23:19;23.73;;;12.85;;
68216;SDS011;55037;52.354;4.992;2023-03-01T00:25:46;27.85;;;12.85;;
68216;SDS011;55037;52.354;4.992;2023-03-01T00:28:14;29.40;;;15.07;;
68216;SDS011;55037;52.354;4.992;2023-03-01T00:30:41;29.42;;;14.52;;
68216;SDS011;55037;52.354;4.992;2023-03-01T00:33:09;29.73;;;15.10;;
68216;SDS011;55037;52.354;4.992;2023-03-01T00:35:36;30.40;;;16.02;;
68216;SDS011;55037;52.354;4.992;2023-03-01T00:38:04;33.95;;;16.17;;
68216;SDS011;55037;52.354;4.992;2023-03-01T00:40:33;30.27;;;14.70;;
68216;SDS011;55037;52.354;4.992;2023-03-01T00:43:01;31.20;;;15.73;;
68216;SDS011;55037;52.354;4.992;2023-03-01T00:45:29;30.42;;;15.80;;
68216;SDS011;55037;52.354;4.992;2023-03-01T00:47:57;32.08;;;15.02;;
68216;SDS011;55037;52.354;4.992;2023-03-01T00:50:25;31.10;;;15.82;;
68216;SDS011;55037;52.354;4.992;2023-03-01T00:52:53;32.13;;;16.87;;
68216;SDS011;55037;52.354;4.992;2023-03-01T00:55:22;31.83;;;17.02;;
68216;SDS011;55037;52.354;4.992;2023-03-01T00:57:49;28.90;;;16.02;;
68216;SDS011;55037;52.354;4.992;2023-03-01T01:00:17;31.33;;;16.63;;
68216;SDS011;55037;52.354;4.992;2023-03-01T01:02:47;35.72;;;17.25;;
68216;SDS011;55037;52.354;4.992;2023-03-01T01:05:14;33.00;;;16.87;;
68216;SDS011;55037;52.354;4.992;2023-03-01T01:07:47;35.38;;;17.13;;
68216;SDS011;55037;52.354;4.992;2023-03-01T01:10:15;31.83;;;16.60;;
68216;SDS011;55037;52.354;4.992;2023-03-01T01:12:44;30.33;;;16.48;;
68216;SDS011;55037;52.354;4.992;2023-03-01T01:15:12;31.52;;;16.65;;
68216;SDS011;55037;52.354;4.992;2023-03-01T01:17:43;36.00;;;17.07;;
68216;SDS011;55037;52.354;4.992;2023-03-01T01:20:10;35.05;;;18.33;;
68216;SDS011;55037;52.354;4.992;2023-03-01T01:22:38;32.63;;;17.38;;
68216;SDS011;55037;52.354;4.992;2023-03-01T01:25:07;34.58;;;17.35;;
68216;SDS011;55037;52.354;4.992;2023-03-01T01:27:36;34.58;;;16.60;;
68216;SDS011;55037;52.354;4.992;2023-03-01T01:30:04;32.83;;;17.43;;
68216;SDS011;55037;52.354;4.992;2023-03-01T01:32:33;38.65;;;18.20;;
68216;SDS011;55037;52.354;4.992;2023-03-01T01:35:00;38.25;;;18.15;;
68216;SDS011;55037;52.354;4.992;2023-03-01T01:37:27;32.58;;;17.63;;
68216;SDS011;55037;52.354;4.992;2023-03-01T01:39:58;34.30;;;17.73;;
68216;SDS011;55037;52.354;4.992;2023-03-01T01:42:26;34.13;;;18.47;;
68216;SDS011;55037;52.354;4.992;2023-03-01T01:48:10;35.70;;;18.30;;
68216;SDS011;55037;52.354;4.992;2023-03-01T01:50:41;36.58;;;18.80;;
68216;SDS011;55037;52.354;4.992;2023-03-01T01:53:12;39.25;;;19.67;;
68216;SDS011;55037;52.354;4.992;2023-03-01T01:55:48;35.20;;;18.97;;
68216;SDS011;55037;52.354;4.992;2023-03-01T01:58:20;45.83;;;20.15;;
68216;SDS011;55037;52.354;4.992;2023-03-01T02:00:48;43.65;;;21.08;;
68216;SDS011;55037;52.354;4.992;2023-03-01T02:03:21;43.22;;;19.58;;
68216;SDS011;55037;52.354;4.992;2023-03-01T02:05:53;46.00;;;20.45;;
68216;SDS011;55037;52.354;4.992;2023-03-01T02:08:30;40.75;;;20.45;;
68216;SDS011;55037;52.354;4.992;2023-03-01T02:11:00;44.53;;;20.65;;
68216;SDS011;55037;52.354;4.992;2023-03-01T02:13:30;44.78;;;20.98;;
68216;SDS011;55037;52.354;4.992;2023-03-01T02:15:59;41.38;;;20.80;;
68216;SDS011;55037;52.354;4.992;2023-03-01T02:18:29;43.08;;;21.17;;
68216;SDS011;55037;52.354;4.992;2023-03-01T02:21:01;40.47;;;20.33;;
68216;SDS011;55037;52.354;4.992;2023-03-01T02:23:42;40.90;;;19.08;;
68216;SDS011;55037;52.354;4.992;2023-03-01T02:26:27;38.30;;;19.88;;
68216;SDS011;55037;52.354;4.992;2023-03-01T02:29:13;43.22;;;20.23;;
68216;SDS011;55037;52.354;4.992;2023-03-01T02:31:40;39.40;;;19.45;;
68216;SDS011;55037;52.354;4.992;2023-03-01T02:34:15;40.67;;;20.17;;
68216;SDS011;55037;52.354;4.992;2023-03-01T02:39:47;37.33;;;19.30;;
68216;SDS011;55037;52.354;4.992;2023-03-01T02:42:20;42.83;;;20.05;;
68216;SDS011;55037;52.354;4.992;2023-03-01T02:44:52;35.80;;;16.73;;
68216;SDS011;55037;52.354;4.992;2023-03-01T02:47:20;42.73;;;19.53;;
68216;SDS011;55037;52.354;4.992;2023-03-01T02:49:47;38.38;;;18.63;;
68216;SDS011;55037;52.354;4.992;2023-03-01T02:54:57;39.05;;;18.73;;
68216;SDS011;55037;52.354;4.992;2023-03-01T02:57:28;34.25;;;17.45;;
68216;SDS011;55037;52.354;4.992;2023-03-01T02:59:59;38.77;;;18.47;;
68216;SDS011;55037;52.354;4.992;2023-03-01T03:02:35;41.28;;;18.65;;
68216;SDS011;55037;52.354;4.992;2023-03-01T03:07:35;40.10;;;19.02;;
68216;SDS011;55037;52.354;4.992;2023-03-01T03:10:06;36.35;;;18.27;;
68216;SDS011;55037;52.354;4.992;2023-03-01T03:12:35;36.20;;;18.13;;
68216;SDS011;55037;52.354;4.992;2023-03-01T03:15:02;36.80;;;19.05;;
68216;SDS011;55037;52.354;4.992;2023-03-01T03:17:36;41.72;;;20.20;;
68216;SDS011;55037;52.354;4.992;2023-03-01T03:20:04;34.83;;;16.73;;
68216;SDS011;55037;52.354;4.992;2023-03-01T03:22:33;35.45;;;17.73;;
68216;SDS011;55037;52.354;4.992;2023-03-01T03:25:00;37.37;;;18.30;;
68216;SDS011;55037;52.354;4.992;2023-03-01T03:27:28;39.25;;;17.98;;
68216;SDS011;55037;52.354;4.992;2023-03-01T03:29:55;37.88;;;18.13;;
68216;SDS011;55037;52.354;4.992;2023-03-01T03:32:22;39.78;;;18.25;;
68216;SDS011;55037;52.354;4.992;2023-03-01T03:34:49;39.65;;;19.23;;
68216;SDS011;55037;52.354;4.992;2023-03-01T03:37:17;33.70;;;17.77;;
68216;SDS011;55037;52.354;4.992;2023-03-01T03:40:04;39.22;;;18.10;;
68216;SDS011;55037;52.354;4.992;2023-03-01T03:42:41;38.15;;;17.50;;
68216;SDS011;55037;52.354;4.992;2023-03-01T03:45:09;40.13;;;18.05;;
68216;SDS011;55037;52.354;4.992;2023-03-01T03:47:36;36.58;;;17.90;;
68216;SDS011;55037;52.354;4.992;2023-03-01T03:50:03;40.50;;;19.00;;
68216;SDS011;55037;52.354;4.992;2023-03-01T03:52:31;34.45;;;17.92;;
68216;SDS011;55037;52.354;4.992;2023-03-01T03:54:58;39.53;;;19.35;;
68216;SDS011;55037;52.354;4.992;2023-03-01T03:57:25;41.28;;;19.90;;
68216;SDS011;55037;52.354;4.992;2023-03-01T03:59:52;41.28;;;19.63;;
68216;SDS011;55037;52.354;4.992;2023-03-01T04:02:19;45.63;;;20.03;;
68216;SDS011;55037;52.354;4.992;2023-03-01T04:04:51;48.90;;;19.88;;
68216;SDS011;55037;52.354;4.992;2023-03-01T04:07:18;44.92;;;20.80;;
68216;SDS011;55037;52.354;4.992;2023-03-01T04:09:45;40.97;;;19.58;;
68216;SDS011;55037;52.354;4.992;2023-03-01T04:12:12;47.60;;;21.38;;
68216;SDS011;55037;52.354;4.992;2023-03-01T04:14:39;50.70;;;20.43;;
68216;SDS011;55037;52.354;4.992;2023-03-01T04:17:07;45.42;;;20.38;;
68216;SDS011;55037;52.354;4.992;2023-03-01T04:19:34;46.08;;;18.58;;
68216;SDS011;55037;52.354;4.992;2023-03-01T04:22:02;45.90;;;20.63;;
68216;SDS011;55037;52.354;4.992;2023-03-01T04:24:35;49.00;;;20.73;;
68216;SDS011;55037;52.354;4.992;2023-03-01T04:27:02;43.60;;;19.63;;
68216;SDS011;55037;52.354;4.992;2023-03-01T04:29:30;44.70;;;20.75;;
68216;SDS011;55037;52.354;4.992;2023-03-01T04:31:57;45.40;;;20.55;;
68216;SDS011;55037;52.354;4.992;2023-03-01T04:34:24;41.92;;;21.52;;
68216;SDS011;55037;52.354;4.992;2023-03-01T04:36:53;46.95;;;20.45;;
68216;SDS011;55037;52.354;4.992;2023-03-01T04:39:21;49.40;;;19.47;;
68216;SDS011;55037;52.354;4.992;2023-03-01T04:41:48;47.65;;;20.50;;
68216;SDS011;55037;52.354;4.992;2023-03-01T04:44:15;41.50;;;19.73;;
68216;SDS011;55037;52.354;4.992;2023-03-01T04:46:42;44.95;;;17.88;;
68216;SDS011;55037;52.354;4.992;2023-03-01T04:49:10;46.08;;;19.90;;
68216;SDS011;55037;52.354;4.992;2023-03-01T04:51:37;43.33;;;18.87;;
68216;SDS011;55037;52.354;4.992;2023-03-01T04:54:04;41.10;;;17.63;;
68216;SDS011;55037;52.354;4.992;2023-03-01T04:56:35;40.50;;;17.88;;
68216;SDS011;55037;52.354;4.992;2023-03-01T04:59:02;47.53;;;19.23;;
68216;SDS011;55037;52.354;4.992;2023-03-01T05:01:32;47.75;;;20.80;;
68216;SDS011;55037;52.354;4.992;2023-03-01T05:04:00;45.80;;;20.97;;
68216;SDS011;55037;52.354;4.992;2023-03-01T05:06:29;52.10;;;22.58;;
68216;SDS011;55037;52.354;4.992;2023-03-01T05:08:57;49.40;;;21.27;;
68216;SDS011;55037;52.354;4.992;2023-03-01T05:11:24;54.78;;;22.15;;
68216;SDS011;55037;52.354;4.992;2023-03-01T05:13:51;55.78;;;22.50;;
68216;SDS011;55037;52.354;4.992;2023-03-01T05:16:21;55.30;;;23.07;;
68216;SDS011;55037;52.354;4.992;2023-03-01T05:18:48;56.88;;;21.70;;
68216;SDS011;55037;52.354;4.992;2023-03-01T05:21:17;52.33;;;21.98;;
68216;SDS011;55037;52.354;4.992;2023-03-01T05:23:45;58.42;;;23.00;;
68216;SDS011;55037;52.354;4.992;2023-03-01T05:26:13;59.22;;;23.30;;
68216;SDS011;55037;52.354;4.992;2023-03-01T05:28:54;58.10;;;22.80;;
68216;SDS011;55037;52.354;4.992;2023-03-01T05:31:25;63.15;;;23.42;;
68216;SDS011;55037;52.354;4.992;2023-03-01T05:33:53;59.85;;;23.50;;
68216;SDS011;55037;52.354;4.992;2023-03-01T05:36:20;59.42;;;23.35;;
68216;SDS011;55037;52.354;4.992;2023-03-01T05:38:47;67.03;;;25.48;;
68216;SDS011;55037;52.354;4.992;2023-03-01T05:41:14;67.37;;;25.30;;
68216;SDS011;55037;52.354;4.992;2023-03-01T05:43:43;70.32;;;24.15;;
68216;SDS011;55037;52.354;4.992;2023-03-01T05:46:11;60.13;;;23.67;;
68216;SDS011;55037;52.354;4.992;2023-03-01T05:48:40;64.32;;;23.80;;
68216;SDS011;55037;52.354;4.992;2023-03-01T05:51:07;66.05;;;23.05;;
68216;SDS011;55037;52.354;4.992;2023-03-01T05:53:34;76.13;;;24.60;;
68216;SDS011;55037;52.354;4.992;2023-03-01T05:56:05;63.20;;;24.10;;
68216;SDS011;55037;52.354;4.992;2023-03-01T05:58:32;72.35;;;23.65;;
68216;SDS011;55037;52.354;4.992;2023-03-01T06:01:00;70.45;;;23.58;;
68216;SDS011;55037;52.354;4.992;2023-03-01T06:03:27;85.82;;;23.60;;
68216;SDS011;55037;52.354;4.992;2023-03-01T06:05:57;75.17;;;23.43;;
68216;SDS011;55037;52.354;4.992;2023-03-01T06:08:25;65.72;;;21.80;;
68216;SDS011;55037;52.354;4.992;2023-03-01T06:10:54;69.15;;;22.02;;
68216;SDS011;55037;52.354;4.992;2023-03-01T06:13:21;60.40;;;21.25;;
68216;SDS011;55037;52.354;4.992;2023-03-01T06:15:50;53.08;;;18.92;;
68216;SDS011;55037;52.354;4.992;2023-03-01T06:18:17;54.07;;;18.40;;
68216;SDS011;55037;52.354;4.992;2023-03-01T06:20:44;54.70;;;18.85;;
68216;SDS011;55037;52.354;4.992;2023-03-01T06:23:11;49.72;;;18.38;;
68216;SDS011;55037;52.354;4.992;2023-03-01T06:25:39;51.13;;;18.77;;
68216;SDS011;55037;52.354;4.992;2023-03-01T06:28:06;56.13;;;19.13;;
68216;SDS011;55037;52.354;4.992;2023-03-01T06:30:33;61.33;;;21.30;;
68216;SDS011;55037;52.354;4.992;2023-03-01T06:33:00;66.43;;;20.08;;
68216;SDS011;55037;52.354;4.992;2023-03-01T06:35:29;53.35;;;19.50;;
68216;SDS011;55037;52.354;4.992;2023-03-01T06:37:58;54.67;;;19.30;;
68216;SDS011;55037;52.354;4.992;2023-03-01T06:40:26;57.40;;;20.02;;
68216;SDS011;55037;52.354;4.992;2023-03-01T06:42:54;47.07;;;17.47;;
68216;SDS011;55037;52.354;4.992;2023-03-01T06:45:22;41.67;;;16.60;;
68216;SDS011;55037;52.354;4.992;2023-03-01T06:47:49;43.88;;;17.60;;
68216;SDS011;55037;52.354;4.992;2023-03-01T06:50:17;50.67;;;18.92;;
68216;SDS011;55037;52.354;4.992;2023-03-01T06:52:45;48.72;;;18.55;;
68216;SDS011;55037;52.354;4.992;2023-03-01T06:55:12;46.40;;;18.07;;
68216;SDS011;55037;52.354;4.992;2023-03-01T06:57:40;48.67;;;18.55;;
68216;SDS011;55037;52.354;4.992;2023-03-01T07:00:07;40.72;;;16.73;;
68216;SDS011;55037;52.354;4.992;2023-03-01T07:02:35;73.43;;;18.42;;
68216;SDS011;55037;52.354;4.992;2023-03-01T07:05:02;112.18;;;19.63;;
68216;SDS011;55037;52.354;4.992;2023-03-01T07:07:30;86.27;;;19.20;;
68216;SDS011;55037;52.354;4.992;2023-03-01T07:09:57;66.28;;;16.65;;
68216;SDS011;55037;52.354;4.992;2023-03-01T07:12:24;60.88;;;16.20;;
68216;SDS011;55037;52.354;4.992;2023-03-01T07:14:52;45.80;;;15.95;;
68216;SDS011;55037;52.354;4.992;2023-03-01T07:17:19;45.22;;;15.20;;
68216;SDS011;55037;52.354;4.992;2023-03-01T07:19:46;50.00;;;16.17;;
68216;SDS011;55037;52.354;4.992;2023-03-01T07:22:13;40.92;;;14.68;;
68216;SDS011;55037;52.354;4.992;2023-03-01T07:24:41;54.60;;;14.40;;
68216;SDS011;55037;52.354;4.992;2023-03-01T07:27:09;62.03;;;13.60;;
68216;SDS011;55037;52.354;4.992;2023-03-01T07:29:36;50.53;;;14.52;;
68216;SDS011;55037;52.354;4.992;2023-03-01T07:32:04;60.73;;;14.37;;
68216;SDS011;55037;52.354;4.992;2023-03-01T07:34:32;55.80;;;14.90;;
68216;SDS011;55037;52.354;4.992;2023-03-01T07:36:59;62.13;;;14.80;;
68216;SDS011;55037;52.354;4.992;2023-03-01T07:39:27;57.88;;;14.70;;
68216;SDS011;55037;52.354;4.992;2023-03-01T07:41:54;146.80;;;18.50;;
68216;SDS011;55037;52.354;4.992;2023-03-01T07:44:22;126.20;;;18.63;;
68216;SDS011;55037;52.354;4.992;2023-03-01T07:46:49;117.13;;;19.98;;
68216;SDS011;55037;52.354;4.992;2023-03-01T07:49:17;149.77;;;18.00;;
68216;SDS011;55037;52.354;4.992;2023-03-01T07:51:45;246.18;;;21.33;;
68216;SDS011;55037;52.354;4.992;2023-03-01T07:54:12;179.48;;;22.52;;
68216;SDS011;55037;52.354;4.992;2023-03-01T07:56:39;130.17;;;16.53;;
68216;SDS011;55037;52.354;4.992;2023-03-01T07:59:07;260.88;;;22.10;;
68216;SDS011;55037;52.354;4.992;2023-03-01T08:01:34;160.40;;;17.23;;
68216;SDS011;55037;52.354;4.992;2023-03-01T08:04:02;134.90;;;19.13;;
68216;SDS011;55037;52.354;4.992;2023-03-01T08:06:29;89.90;;;16.25;;
68216;SDS011;55037;52.354;4.992;2023-03-01T08:08:57;57.50;;;16.17;;
68216;SDS011;55037;52.354;4.992;2023-03-01T08:11:25;211.07;;;19.52;;
68216;SDS011;55037;52.354;4.992;2023-03-01T08:13:54;383.40;;;29.55;;
68216;SDS011;55037;52.354;4.992;2023-03-01T08:16:22;378.50;;;23.48;;
68216;SDS011;55037;52.354;4.992;2023-03-01T08:18:50;453.67;;;29.25;;
68216;SDS011;55037;52.354;4.992;2023-03-01T08:21:17;247.93;;;22.40;;
68216;SDS011;55037;52.354;4.992;2023-03-01T08:23:45;422.20;;;27.80;;
68216;SDS011;55037;52.354;4.992;2023-03-01T08:26:16;236.27;;;23.65;;
68216;SDS011;55037;52.354;4.992;2023-03-01T08:28:45;197.65;;;22.05;;
68216;SDS011;55037;52.354;4.992;2023-03-01T08:31:18;133.55;;;20.88;;
68216;SDS011;55037;52.354;4.992;2023-03-01T08:33:48;205.10;;;22.60;;
68216;SDS011;55037;52.354;4.992;2023-03-01T08:36:22;224.50;;;21.90;;
68216;SDS011;55037;52.354;4.992;2023-03-01T08:38:51;202.02;;;20.65;;
68216;SDS011;55037;52.354;4.992;2023-03-01T08:41:18;247.95;;;22.65;;
68216;SDS011;55037;52.354;4.992;2023-03-01T08:43:46;408.52;;;25.45;;
68216;SDS011;55037;52.354;4.992;2023-03-01T08:46:14;342.00;;;23.93;;
68216;SDS011;55037;52.354;4.992;2023-03-01T08:48:41;240.15;;;19.98;;
68216;SDS011;55037;52.354;4.992;2023-03-01T08:51:12;233.20;;;18.25;;
68216;SDS011;55037;52.354;4.992;2023-03-01T08:53:45;164.45;;;16.30;;
68216;SDS011;55037;52.354;4.992;2023-03-01T08:56:13;138.93;;;16.90;;
68216;SDS011;55037;52.354;4.992;2023-03-01T08:58:47;236.00;;;17.40;;
68216;SDS011;55037;52.354;4.992;2023-03-01T09:01:16;123.13;;;14.80;;
68216;SDS011;55037;52.354;4.992;2023-03-01T09:03:44;117.60;;;16.88;;
68216;SDS011;55037;52.354;4.992;2023-03-01T09:06:12;173.95;;;17.52;;
68216;SDS011;55037;52.354;4.992;2023-03-01T09:08:41;126.85;;;18.23;;
68216;SDS011;55037;52.354;4.992;2023-03-01T09:11:11;345.50;;;21.13;;
68216;SDS011;55037;52.354;4.992;2023-03-01T09:13:40;172.90;;;18.38;;
68216;SDS011;55037;52.354;4.992;2023-03-01T09:16:10;123.80;;;16.60;;
68216;SDS011;55037;52.354;4.992;2023-03-01T09:18:38;230.40;;;19.05;;
68216;SDS011;55037;52.354;4.992;2023-03-01T09:23:38;86.90;;;16.30;;
68216;SDS011;55037;52.354;4.992;2023-03-01T09:26:08;184.00;;;18.00;;
68216;SDS011;55037;52.354;4.992;2023-03-01T09:28:41;198.75;;;18.48;;
68216;SDS011;55037;52.354;4.992;2023-03-01T09:31:08;144.02;;;17.20;;
68216;SDS011;55037;52.354;4.992;2023-03-01T09:33:36;125.55;;;16.52;;
68216;SDS011;55037;52.354;4.992;2023-03-01T09:36:04;113.00;;;17.43;;
68216;SDS011;55037;52.354;4.992;2023-03-01T09:38:33;60.10;;;16.35;;
68216;SDS011;55037;52.354;4.992;2023-03-01T09:41:01;84.63;;;16.63;;
68216;SDS011;55037;52.354;4.992;2023-03-01T09:43:35;57.15;;;16.30;;
68216;SDS011;55037;52.354;4.992;2023-03-01T09:46:23;75.95;;;15.20;;
68216;SDS011;55037;52.354;4.992;2023-03-01T09:49:01;59.03;;;17.20;;
68216;SDS011;55037;52.354;4.992;2023-03-01T09:51:38;107.38;;;16.98;;
68216;SDS011;55037;52.354;4.992;2023-03-01T09:54:08;106.18;;;18.17;;
68216;SDS011;55037;52.354;4.992;2023-03-01T09:56:41;86.57;;;18.02;;
68216;SDS011;55037;52.354;4.992;2023-03-01T10:01:44;39.47;;;17.40;;
68216;SDS011;55037;52.354;4.992;2023-03-01T10:04:41;49.28;;;18.90;;
68216;SDS011;55037;52.354;4.992;2023-03-01T10:10:16;30.23;;;19.00;;
68216;SDS011;55037;52.354;4.992;2023-03-01T10:12:57;29.55;;;18.02;;
68216;SDS011;55037;52.354;4.992;2023-03-01T10:15:33;25.00;;;18.20;;
68216;SDS011;55037;52.354;4.992;2023-03-01T10:18:12;24.60;;;19.05;;
68216;SDS011;55037;52.354;4.992;2023-03-01T10:20:55;19.88;;;15.38;;
68216;SDS011;55037;52.354;4.992;2023-03-01T10:23:28;19.70;;;13.85;;
68216;SDS011;55037;52.354;4.992;2023-03-01T10:29:08;15.15;;;11.65;;
68216;SDS011;55037;52.354;4.992;2023-03-01T10:34:12;15.07;;;11.63;;
68216;SDS011;55037;52.354;4.992;2023-03-01T10:36:45;14.45;;;10.68;;
68216;SDS011;55037;52.354;4.992;2023-03-01T10:39:16;13.48;;;11.18;;
68216;SDS011;55037;52.354;4.992;2023-03-01T10:44:40;12.93;;;10.40;;
68216;SDS011;55037;52.354;4.992;2023-03-01T10:47:15;13.38;;;11.20;;
68216;SDS011;55037;52.354;4.992;2023-03-01T10:49:57;15.10;;;11.30;;
68216;SDS011;55037;52.354;4.992;2023-03-01T10:52:34;13.75;;;11.57;;
68216;SDS011;55037;52.354;4.992;2023-03-01T10:57:39;13.30;;;11.63;;
68216;SDS011;55037;52.354;4.992;2023-03-01T11:05:25;16.95;;;12.73;;
68216;SDS011;55037;52.354;4.992;2023-03-01T11:07:55;15.70;;;13.15;;
68216;SDS011;55037;52.354;4.992;2023-03-01T11:10:28;15.77;;;12.13;;
68216;SDS011;55037;52.354;4.992;2023-03-01T11:15:57;15.27;;;13.30;;
68216;SDS011;55037;52.354;4.992;2023-03-01T11:18:32;14.10;;;12.32;;
68216;SDS011;55037;52.354;4.992;2023-03-01T11:21:14;14.48;;;12.15;;
68216;SDS011;55037;52.354;4.992;2023-03-01T11:23:42;15.63;;;12.47;;
68216;SDS011;55037;52.354;4.992;2023-03-01T11:26:13;15.82;;;12.57;;
68216;SDS011;55037;52.354;4.992;2023-03-01T11:28:42;15.05;;;12.23;;
68216;SDS011;55037;52.354;4.992;2023-03-01T11:31:16;15.10;;;12.60;;
68216;SDS011;55037;52.354;4.992;2023-03-01T11:36:47;14.93;;;12.67;;
68216;SDS011;55037;52.354;4.992;2023-03-01T11:42:06;14.48;;;11.93;;
68216;SDS011;55037;52.354;4.992;2023-03-01T11:44:55;14.52;;;11.82;;
68216;SDS011;55037;52.354;4.992;2023-03-01T11:50:26;13.93;;;11.57;;
68216;SDS011;55037;52.354;4.992;2023-03-01T12:16:19;16.95;;;12.95;;
68216;SDS011;55037;52.354;4.992;2023-03-01T12:29:59;17.08;;;12.73;;
68216;SDS011;55037;52.354;4.992;2023-03-01T12:32:42;15.17;;;13.33;;
68216;SDS011;55037;52.354;4.992;2023-03-01T12:35:47;16.38;;;13.13;;
68216;SDS011;55037;52.354;4.992;2023-03-01T12:38:50;15.30;;;12.77;;
68216;SDS011;55037;52.354;4.992;2023-03-01T12:41:43;15.98;;;12.68;;
68216;SDS011;55037;52.354;4.992;2023-03-01T12:47:07;14.07;;;11.07;;
68216;SDS011;55037;52.354;4.992;2023-03-01T12:52:33;13.38;;;10.20;;
68216;SDS011;55037;52.354;4.992;2023-03-01T12:55:07;11.95;;;10.65;;
68216;SDS011;55037;52.354;4.992;2023-03-01T12:57:50;13.35;;;10.45;;
68216;SDS011;55037;52.354;4.992;2023-03-01T13:09:06;14.57;;;11.55;;
68216;SDS011;55037;52.354;4.992;2023-03-01T13:11:57;15.07;;;12.18;;
68216;SDS011;55037;52.354;4.992;2023-03-01T13:16:52;14.23;;;11.20;;
68216;SDS011;55037;52.354;4.992;2023-03-01T13:19:21;13.95;;;11.10;;
68216;SDS011;55037;52.354;4.992;2023-03-01T13:21:51;17.08;;;11.65;;
68216;SDS011;55037;52.354;4.992;2023-03-01T13:24:26;13.82;;;10.85;;
68216;SDS011;55037;52.354;4.992;2023-03-01T13:32:21;14.52;;;10.20;;
68216;SDS011;55037;52.354;4.992;2023-03-01T13:37:47;13.68;;;10.50;;
68216;SDS011;55037;52.354;4.992;2023-03-01T13:42:49;15.02;;;10.75;;
68216;SDS011;55037;52.354;4.992;2023-03-01T13:48:15;13.82;;;11.00;;
68216;SDS011;55037;52.354;4.992;2023-03-01T13:51:02;15.35;;;11.13;;
68216;SDS011;55037;52.354;4.992;2023-03-01T13:53:41;14.10;;;10.13;;
68216;SDS011;55037;52.354;4.992;2023-03-01T13:56:15;14.25;;;9.60;;
68216;SDS011;55037;52.354;4.992;2023-03-01T13:58:58;14.50;;;9.20;;
68216;SDS011;55037;52.354;4.992;2023-03-01T14:01:32;11.95;;;9.40;;
68216;SDS011;55037;52.354;4.992;2023-03-01T14:04:02;12.77;;;8.27;;
68216;SDS011;55037;52.354;4.992;2023-03-01T14:06:44;12.17;;;8.20;;
68216;SDS011;55037;52.354;4.992;2023-03-01T14:09:22;9.55;;;8.13;;
68216;SDS011;55037;52.354;4.992;2023-03-01T14:11:59;10.10;;;7.88;;
68216;SDS011;55037;52.354;4.992;2023-03-01T14:14:52;10.25;;;7.80;;
68216;SDS011;55037;52.354;4.992;2023-03-01T14:20:20;10.87;;;7.50;;
68216;SDS011;55037;52.354;4.992;2023-03-01T14:23:01;9.10;;;7.55;;
68216;SDS011;55037;52.354;4.992;2023-03-01T14:25:36;10.68;;;7.22;;
68216;SDS011;55037;52.354;4.992;2023-03-01T14:30:45;9.98;;;6.72;;
68216;SDS011;55037;52.354;4.992;2023-03-01T14:35:59;9.10;;;7.28;;
68216;SDS011;55037;52.354;4.992;2023-03-01T14:38:38;10.20;;;7.55;;
68216;SDS011;55037;52.354;4.992;2023-03-01T14:41:20;11.90;;;8.02;;
68216;SDS011;55037;52.354;4.992;2023-03-01T14:44:14;11.70;;;8.00;;
68216;SDS011;55037;52.354;4.992;2023-03-01T14:46:43;11.20;;;7.27;;
68216;SDS011;55037;52.354;4.992;2023-03-01T14:49:22;8.82;;;6.18;;
68216;SDS011;55037;52.354;4.992;2023-03-01T14:52:02;7.22;;;5.50;;
68216;SDS011;55037;52.354;4.992;2023-03-01T14:54:42;8.80;;;6.00;;
68216;SDS011;55037;52.354;4.992;2023-03-01T14:57:14;9.00;;;5.97;;
68216;SDS011;55037;52.354;4.992;2023-03-01T14:59:43;7.97;;;5.97;;
68216;SDS011;55037;52.354;4.992;2023-03-01T15:02:13;7.13;;;5.30;;
68216;SDS011;55037;52.354;4.992;2023-03-01T15:04:54;9.57;;;6.22;;
68216;SDS011;55037;52.354;4.992;2023-03-01T15:07:28;8.57;;;5.72;;
68216;SDS011;55037;52.354;4.992;2023-03-01T15:10:05;9.95;;;5.43;;
68216;SDS011;55037;52.354;4.992;2023-03-01T15:12:41;8.37;;;5.60;;
68216;SDS011;55037;52.354;4.992;2023-03-01T15:15:19;6.75;;;5.30;;
68216;SDS011;55037;52.354;4.992;2023-03-01T15:17:56;8.45;;;5.78;;
68216;SDS011;55037;52.354;4.992;2023-03-01T15:20:39;7.95;;;5.22;;
68216;SDS011;55037;52.354;4.992;2023-03-01T15:23:12;9.27;;;5.45;;
68216;SDS011;55037;52.354;4.992;2023-03-01T15:25:54;11.80;;;5.97;;
68216;SDS011;55037;52.354;4.992;2023-03-01T15:28:28;8.48;;;5.65;;
68216;SDS011;55037;52.354;4.992;2023-03-01T15:30:59;7.88;;;5.85;;
68216;SDS011;55037;52.354;4.992;2023-03-01T15:33:36;8.60;;;5.50;;
68216;SDS011;55037;52.354;4.992;2023-03-01T15:39:05;8.07;;;5.70;;
68216;SDS011;55037;52.354;4.992;2023-03-01T15:41:52;8.02;;;5.78;;
68216;SDS011;55037;52.354;4.992;2023-03-01T15:44:29;8.65;;;5.50;;
68216;SDS011;55037;52.354;4.992;2023-03-01T15:47:23;8.80;;;5.90;;
68216;SDS011;55037;52.354;4.992;2023-03-01T15:49:53;7.90;;;5.38;;
68216;SDS011;55037;52.354;4.992;2023-03-01T15:52:29;9.10;;;5.37;;
68216;SDS011;55037;52.354;4.992;2023-03-01T15:55:04;9.60;;;5.60;;
68216;SDS011;55037;52.354;4.992;2023-03-01T15:57:33;8.45;;;5.55;;
68216;SDS011;55037;52.354;4.992;2023-03-01T16:00:01;8.90;;;5.35;;
68216;SDS011;55037;52.354;4.992;2023-03-01T16:02:37;7.68;;;5.47;;
68216;SDS011;55037;52.354;4.992;2023-03-01T16:05:08;9.05;;;5.07;;
68216;SDS011;55037;52.354;4.992;2023-03-01T16:07:57;8.35;;;5.20;;
68216;SDS011;55037;52.354;4.992;2023-03-01T16:10:25;7.40;;;5.40;;
68216;SDS011;55037;52.354;4.992;2023-03-01T16:12:52;8.00;;;5.13;;
68216;SDS011;55037;52.354;4.992;2023-03-01T16:15:22;8.48;;;5.40;;
68216;SDS011;55037;52.354;4.992;2023-03-01T16:17:56;8.02;;;5.32;;
68216;SDS011;55037;52.354;4.992;2023-03-01T16:20:24;8.18;;;5.50;;
68216;SDS011;55037;52.354;4.992;2023-03-01T16:22:59;6.97;;;5.50;;
68216;SDS011;55037;52.354;4.992;2023-03-01T16:25:28;7.68;;;5.15;;
68216;SDS011;55037;52.354;4.992;2023-03-01T16:27:56;8.85;;;5.10;;
68216;SDS011;55037;52.354;4.992;2023-03-01T16:30:25;8.43;;;5.30;;
68216;SDS011;55037;52.354;4.992;2023-03-01T16:32:52;7.18;;;4.95;;
68216;SDS011;55037;52.354;4.992;2023-03-01T16:35:21;8.48;;;4.90;;
68216;SDS011;55037;52.354;4.992;2023-03-01T16:37:48;7.43;;;5.30;;
68216;SDS011;55037;52.354;4.992;2023-03-01T16:40:17;8.10;;;5.88;;
68216;SDS011;55037;52.354;4.992;2023-03-01T16:42:53;8.52;;;5.72;;
68216;SDS011;55037;52.354;4.992;2023-03-01T16:45:26;9.13;;;5.68;;
68216;SDS011;55037;52.354;4.992;2023-03-01T16:48:03;8.95;;;5.72;;
68216;SDS011;55037;52.354;4.992;2023-03-01T16:50:30;9.55;;;6.43;;